Antarctic Sea — LAWR — position and weather

sailwx.info

Track history (hours):
 
Tides and Currents Weather Stations Pressure Air Temp Water Temp Dewpoint Dewpoint Depression Visibility Wind Speed Wind Dir Waves Ship Positions

Antarctic Sea

Last reported at 2017-Nov-14 22:02 UTC. Time now 2017-Dec-16 19:02 UTC.
Position N 27°45' W 015°20'.
Warning: this ship's position is 31 days out of date.

Length 134 m; draft 5.8 m.

Type: Fishing. MMSI: 258139000.

Date/timePositionNaut miles runAvg speedWind from/ knotsBaromVisibWave heightAir tempDewpointWater temp
2017-Nov-14 22:02N 27°45' W 015°20'011.4
2017-Nov-14 22:00N 27°45' W 015°20'611.3
2017-Nov-14 21:30N 27°50' W 015°17'611.7
2017-Nov-14 21:00N 27°56' W 015°17'611.2
2017-Nov-14 20:30N 28°02' W 015°18'611.2
2017-Nov-14 20:00N 28°06' W 015°22'1 2.1
2017-Nov-14 19:30N 28°06' W 015°24'0 0.0
2017-Nov-14 19:00N 28°06' W 015°24'0 0.1
2017-Nov-14 18:30N 28°06' W 015°24'0 0.1
2017-Nov-14 18:00N 28°06' W 015°24'0 0.1
2017-Nov-14 17:30N 28°06' W 015°24'0 0.2
2017-Nov-14 17:00N 28°06' W 015°23'2 3.3
2017-Nov-14 16:30N 28°07' W 015°22'3 5.2
2017-Nov-14 16:00N 28°07' W 015°19'1 1.6
2017-Nov-14 15:30N 28°06' W 015°18'2 4.8
2017-Nov-14 15:00N 28°06' W 015°15'2 3.9
2017-Nov-14 14:30N 28°05' W 015°13'2 3.8
2017-Nov-14 14:00N 28°05' W 015°16'0 0.6
2017-Nov-14 13:30N 28°05' W 015°16'3 5.2
2017-Nov-14 13:00N 28°05' W 015°13'3 5.5
2017-Nov-14 12:31N 28°05' W 015°10'2 4.7
2017-Nov-14 12:00N 28°05' W 015°13'2 4.2
2017-Nov-14 11:30N 28°06' W 015°15'1 1.4
2017-Nov-14 11:00N 28°06' W 015°15'3 5.0
2017-Nov-14 10:30N 28°06' W 015°13'1 2.6
2017-Nov-14 10:00N 28°06' W 015°14'1 2.3
2017-Nov-14 09:30N 28°06' W 015°15'2 4.8
2017-Nov-14 09:00N 28°06' W 015°18'4 8.8
2017-Nov-14 08:30N 28°07' W 015°23'1 2.6
2017-Nov-14 08:00N 28°07' W 015°25'0 0.1
2017-Nov-14 07:30N 28°07' W 015°25'0 0.0
2017-Nov-14 07:00N 28°07' W 015°25'0 0.0
2017-Nov-14 06:30N 28°07' W 015°25'0 0.1
2017-Nov-14 06:00N 28°07' W 015°25'0 0.1
2017-Nov-14 05:30N 28°07' W 015°25'0 0.0
2017-Nov-14 05:00N 28°07' W 015°25'0 0.1
2017-Nov-14 04:30N 28°07' W 015°25'0 0.1
2017-Nov-14 04:00N 28°07' W 015°25'0 0.1
2017-Nov-14 03:30N 28°07' W 015°25'0 0.0
2017-Nov-14 03:00N 28°07' W 015°25'0 0.0
2017-Nov-14 02:30N 28°07' W 015°25'0 0.0
2017-Nov-14 02:00N 28°07' W 015°25'0 0.0
2017-Nov-14 01:30N 28°07' W 015°25'0 0.0
2017-Nov-14 01:00N 28°07' W 015°25'0 0.1
2017-Nov-14 00:30N 28°07' W 015°25'0 0.1
2017-Nov-14 00:00N 28°07' W 015°25'1 1.9
2017-Nov-13 23:30N 28°07' W 015°24'2 3.1
2017-Nov-13 23:00N 28°07' W 015°22'2 4.7
2017-Nov-13 22:30N 28°07' W 015°19'1 2.7
2017-Nov-13 22:00N 28°07' W 015°18'7 0.3
2017-Nov-13 01:58N 28°09' W 015°25'0 0.0
2017-Nov-13 01:19N 28°09' W 015°25'0 0.0
2017-Nov-13 00:46N 28°09' W 015°25'0 0.0
2017-Nov-13 00:19N 28°09' W 015°25'0 0.0
2017-Nov-12 23:52N 28°09' W 015°25'0 0.0
2017-Nov-12 23:22N 28°09' W 015°25'0 0.0
2017-Nov-12 22:52N 28°09' W 015°25'0 0.0
2017-Nov-12 22:22N 28°09' W 015°25'0 0.0
2017-Nov-12 21:52N 28°09' W 015°25'0 0.0
2017-Nov-12 21:19N 28°09' W 015°25'0 0.0
2017-Nov-12 20:55N 28°09' W 015°25'0 0.0
2017-Nov-12 20:25N 28°09' W 015°25'0 0.0
2017-Nov-12 19:55N 28°09' W 015°25'0 0.0
2017-Nov-12 19:25N 28°09' W 015°25'0 0.0
2017-Nov-12 18:55N 28°09' W 015°25'0 0.0
2017-Nov-12 18:25N 28°09' W 015°25'0 0.0
2017-Nov-12 17:55N 28°09' W 015°25'0 0.0
2017-Nov-12 17:28N 28°09' W 015°25'0 0.0
2017-Nov-12 16:58N 28°09' W 015°25'0 0.0
2017-Nov-12 16:28N 28°09' W 015°25'0 0.0
2017-Nov-12 15:58N 28°09' W 015°25'0 0.0
2017-Nov-12 15:28N 28°09' W 015°25'0 0.0
2017-Nov-12 14:58N 28°09' W 015°25'0 0.0
2017-Nov-12 14:28N 28°09' W 015°25'0 0.0
2017-Nov-12 13:58N 28°09' W 015°25'0 0.0
2017-Nov-12 13:28N 28°09' W 015°25'0 0.0
2017-Nov-12 12:58N 28°09' W 015°25'1 1.6
2017-Nov-12 12:30N 28°09' W 015°25'0 0.0
2017-Nov-12 12:00N 28°09' W 015°25'0 0.0
2017-Nov-12 11:30N 28°09' W 015°25'0 0.0
2017-Nov-12 11:00N 28°09' W 015°25'0 0.0
2017-Nov-12 10:30N 28°09' W 015°25'0 0.0
2017-Nov-12 10:00N 28°09' W 015°25'0 0.0
2017-Nov-12 09:30N 28°09' W 015°25'0 0.0
2017-Nov-12 09:00N 28°09' W 015°25'0 0.0
2017-Nov-12 08:30N 28°09' W 015°25'0 0.0
2017-Nov-12 08:00N 28°09' W 015°25'0 0.0
2017-Nov-12 07:30N 28°09' W 015°25'0 0.0
2017-Nov-12 06:48N 28°09' W 015°25'0 0.0
2017-Nov-12 06:21N 28°09' W 015°25'0 0.0
2017-Nov-12 05:54N 28°09' W 015°25'0 0.0
2017-Nov-12 05:21N 28°09' W 015°25'0 0.0
2017-Nov-12 04:54N 28°09' W 015°25'0 0.0
2017-Nov-12 04:24N 28°09' W 015°25'0 0.0
2017-Nov-12 03:54N 28°09' W 015°25'0 0.0
2017-Nov-12 03:24N 28°09' W 015°25'0 0.0
2017-Nov-12 02:54N 28°09' W 015°25'0 0.0
2017-Nov-12 02:24N 28°09' W 015°25'0 0.0
2017-Nov-12 01:57N 28°09' W 015°25'0 0.0
2017-Nov-12 01:26N 28°09' W 015°25'0 0.0
2017-Nov-12 00:57N 28°09' W 015°25'0 0.0
2017-Nov-12 00:27N 28°09' W 015°25'0 0.0
2017-Nov-12 00:00N 28°09' W 015°25'0 0.0
2017-Nov-11 23:30N 28°09' W 015°25'0 0.0
2017-Nov-11 23:00N 28°09' W 015°25'0 0.0
2017-Nov-11 22:30N 28°09' W 015°25'0 0.0
2017-Nov-11 22:00N 28°09' W 015°25'0 0.0
2017-Nov-11 21:30N 28°09' W 015°25'0 0.0
2017-Nov-11 21:00N 28°09' W 015°25'0 0.0
2017-Nov-11 20:30N 28°09' W 015°25'0 0.0
2017-Nov-11 19:59N 28°09' W 015°25'0 0.0
2017-Nov-11 19:30N 28°09' W 015°25'0 0.0
2017-Nov-11 19:00N 28°09' W 015°25'0 0.0
2017-Nov-11 18:30N 28°09' W 015°25'0 0.0
2017-Nov-11 17:59N 28°09' W 015°25'0 0.0
2017-Nov-11 17:30N 28°09' W 015°25'0 0.0
2017-Nov-11 16:59N 28°09' W 015°25'0 0.0
2017-Nov-11 16:21N 28°09' W 015°25'0 0.0
2017-Nov-11 15:50N 28°09' W 015°25'0 0.0
2017-Nov-11 15:21N 28°09' W 015°25'0 0.0
2017-Nov-11 14:51N 28°09' W 015°25'0 0.0
2017-Nov-11 14:24N 28°09' W 015°25'0 0.0
2017-Nov-11 13:54N 28°09' W 015°25'0 0.0
2017-Nov-11 13:23N 28°09' W 015°25'0 0.0
2017-Nov-11 12:53N 28°09' W 015°25'0 0.0
2017-Nov-11 12:23N 28°09' W 015°25'0 0.0
2017-Nov-11 11:53N 28°09' W 015°25'0 0.0
2017-Nov-11 11:27N 28°09' W 015°25'0 0.0
2017-Nov-11 10:56N 28°09' W 015°25'0 0.0
2017-Nov-11 10:27N 28°09' W 015°25'0 0.0
2017-Nov-11 09:56N 28°09' W 015°25'0 0.0
2017-Nov-11 09:26N 28°09' W 015°25'0 0.0
2017-Nov-11 09:00N 28°09' W 015°25'0 0.0
2017-Nov-11 08:29N 28°09' W 015°25'0 0.0
2017-Nov-11 07:59N 28°09' W 015°25'0 0.0
2017-Nov-11 07:29N 28°09' W 015°25'0 0.0
2017-Nov-11 06:59N 28°09' W 015°25'0 0.0
2017-Nov-11 06:30N 28°09' W 015°25'0 0.0
2017-Nov-11 06:00N 28°09' W 015°25'0 0.0
2017-Nov-11 05:29N 28°09' W 015°25'0 0.0
2017-Nov-11 04:59N 28°09' W 015°25'0 0.0
2017-Nov-11 04:29N 28°09' W 015°25'0 0.0
2017-Nov-11 03:47N 28°09' W 015°25'0 0.0
2017-Nov-11 03:29N 28°09' W 015°25'0 0.0
2017-Nov-11 02:59N 28°09' W 015°25'0 0.0
2017-Nov-11 02:29N 28°09' W 015°25'0 0.0
2017-Nov-11 01:59N 28°09' W 015°25'0 0.0
2017-Nov-11 01:29N 28°09' W 015°25'0 0.0
2017-Nov-11 00:50N 28°09' W 015°25'0 0.0
2017-Nov-11 00:23N 28°09' W 015°25'0 0.0
2017-Nov-10 23:53N 28°09' W 015°25'0 0.0
2017-Nov-10 23:23N 28°09' W 015°25'0 0.0
2017-Nov-10 22:53N 28°09' W 015°25'0 0.0
2017-Nov-10 22:23N 28°09' W 015°25'0 0.0
2017-Nov-10 21:53N 28°09' W 015°25'0 0.0
2017-Nov-10 21:23N 28°09' W 015°25'0 0.0
2017-Nov-10 20:53N 28°09' W 015°25'0 0.0
2017-Nov-10 20:26N 28°09' W 015°25'0 0.0
2017-Nov-10 19:53N 28°09' W 015°25'0 0.0
2017-Nov-10 19:26N 28°09' W 015°25'0 0.0
2017-Nov-10 18:56N 28°09' W 015°25'0 0.0
2017-Nov-10 18:23N 28°09' W 015°25'0 0.0
2017-Nov-10 17:59N 28°09' W 015°25'0 0.0
2017-Nov-10 17:29N 28°09' W 015°25'0 0.0
2017-Nov-10 16:59N 28°09' W 015°25'0 0.0
2017-Nov-10 16:29N 28°09' W 015°25'0 0.0
2017-Nov-10 15:59N 28°09' W 015°25'0 0.0
2017-Nov-10 15:29N 28°09' W 015°25'0 0.0
2017-Nov-10 14:56N 28°09' W 015°25'0 0.0
2017-Nov-10 14:29N 28°09' W 015°25'0 0.0
2017-Nov-10 13:59N 28°09' W 015°25'0 0.0
2017-Nov-10 13:17N 28°09' W 015°25'0 0.0
2017-Nov-10 12:59N 28°09' W 015°25'0 0.0
2017-Nov-10 12:29N 28°09' W 015°25'0 0.0
2017-Nov-10 11:59N 28°09' W 015°25'0 0.0
2017-Nov-10 11:29N 28°09' W 015°25'0 0.0
2017-Nov-10 10:59N 28°09' W 015°25'0 0.0
2017-Nov-10 10:20N 28°09' W 015°25'0 0.0
2017-Nov-10 09:50N 28°09' W 015°25'0 0.0
2017-Nov-10 09:20N 28°09' W 015°25'0 0.0
2017-Nov-10 08:50N 28°09' W 015°25'0 0.0
2017-Nov-10 08:23N 28°09' W 015°25'0 0.0
2017-Nov-10 07:53N 28°09' W 015°25'0 0.0
2017-Nov-10 07:20N 28°09' W 015°25'0 0.0
2017-Nov-10 06:50N 28°09' W 015°25'0 0.0
2017-Nov-10 06:26N 28°09' W 015°25'0 0.0
2017-Nov-10 05:53N 28°09' W 015°25'0 0.0
2017-Nov-10 05:26N 28°09' W 015°25'0 0.0
2017-Nov-10 04:50N 28°09' W 015°25'0 0.0
2017-Nov-10 04:26N 28°09' W 015°25'0 0.0
2017-Nov-10 03:53N 28°09' W 015°25'0 0.0
2017-Nov-10 03:26N 28°09' W 015°25'0 0.0
2017-Nov-10 02:59N 28°09' W 015°25'0 0.0
2017-Nov-10 02:29N 28°09' W 015°25'0 0.0
2017-Nov-10 01:59N 28°09' W 015°25'0 0.0
2017-Nov-10 01:29N 28°09' W 015°25'0 0.0
2017-Nov-10 00:59N 28°09' W 015°25'0 0.0
2017-Nov-10 00:29N 28°09' W 015°25'0 0.0
2017-Nov-09 23:59N 28°09' W 015°25'0 0.0
2017-Nov-09 23:29N 28°09' W 015°25'0 0.0
2017-Nov-09 22:59N 28°09' W 015°25'0 0.0
2017-Nov-09 22:29N 28°09' W 015°25'0 0.0
2017-Nov-09 21:59N 28°09' W 015°25'0 0.0
2017-Nov-09 21:29N 28°09' W 015°25'0 0.0
2017-Nov-09 20:59N 28°09' W 015°25'0 0.0
2017-Nov-09 20:29N 28°09' W 015°25'0 0.0
2017-Nov-09 19:50N 28°09' W 015°25'0 0.0
2017-Nov-09 19:20N 28°09' W 015°25'0 0.0
2017-Nov-09 18:50N 28°09' W 015°25'0 0.0
2017-Nov-09 18:17N 28°09' W 015°25'0 0.0
2017-Nov-09 17:53N 28°09' W 015°25'0 0.0
2017-Nov-09 17:23N 28°09' W 015°25'0 0.0
2017-Nov-09 16:53N 28°09' W 015°25'0 0.0
2017-Nov-09 16:23N 28°09' W 015°25'0 0.0
2017-Nov-09 15:53N 28°09' W 015°25'0 0.0
2017-Nov-09 15:23N 28°09' W 015°25'0 0.0
2017-Nov-09 14:56N 28°09' W 015°25'0 0.0
2017-Nov-09 14:23N 28°09' W 015°25'0 0.0
2017-Nov-09 13:56N 28°09' W 015°25'0 0.0
2017-Nov-09 13:26N 28°09' W 015°25'0 0.0
2017-Nov-09 12:56N 28°09' W 015°25'0 0.0
2017-Nov-09 12:26N 28°09' W 015°25'0 0.0
2017-Nov-09 11:56N 28°09' W 015°25'0 0.0
2017-Nov-09 11:26N 28°09' W 015°25'0 0.0
2017-Nov-09 10:59N 28°09' W 015°25'0 0.0
2017-Nov-09 10:29N 28°09' W 015°25'0 0.0
2017-Nov-09 09:59N 28°09' W 015°25'0 0.0
2017-Nov-09 09:29N 28°09' W 015°25'0 0.0
2017-Nov-09 08:56N 28°09' W 015°25'0 0.0
2017-Nov-09 08:29N 28°09' W 015°25'0 0.0
2017-Nov-09 07:59N 28°09' W 015°25'0 0.0
2017-Nov-09 07:17N 28°09' W 015°25'0 0.0
2017-Nov-09 06:59N 28°09' W 015°25'0 0.0
2017-Nov-09 06:29N 28°09' W 015°25'0 0.0
2017-Nov-09 05:59N 28°09' W 015°25'0 0.0
2017-Nov-09 05:29N 28°09' W 015°25'0 0.0
2017-Nov-09 04:59N 28°09' W 015°25'0 0.0
2017-Nov-09 04:29N 28°09' W 015°25'0 0.0
2017-Nov-09 03:50N 28°09' W 015°25'0 0.0
2017-Nov-09 03:05N 28°09' W 015°25'0 0.0
2017-Nov-09 02:53N 28°09' W 015°25'0 0.0
2017-Nov-09 02:23N 28°09' W 015°25'0 0.0
2017-Nov-09 01:53N 28°09' W 015°25'0 0.0
2017-Nov-09 01:23N 28°09' W 015°25'0 0.0
2017-Nov-09 00:53N 28°09' W 015°25'0 0.0
2017-Nov-09 00:23N 28°09' W 015°25'0 0.0
2017-Nov-08 23:56N 28°09' W 015°25'0 0.0
2017-Nov-08 23:26N 28°09' W 015°25'0 0.0
2017-Nov-08 22:56N 28°09' W 015°25'0 0.0
2017-Nov-08 22:26N 28°09' W 015°25'0 0.0
2017-Nov-08 21:56N 28°09' W 015°25'0 0.0
2017-Nov-08 21:29N 28°09' W 015°25'0 0.0
2017-Nov-08 20:56N 28°09' W 015°25'0 0.0
2017-Nov-08 20:23N 28°09' W 015°25'0 0.0
2017-Nov-08 19:59N 28°09' W 015°25'0 0.0
2017-Nov-08 19:29N 28°09' W 015°25'0 0.0
2017-Nov-08 18:59N 28°09' W 015°25'0 0.0
2017-Nov-08 18:29N 28°09' W 015°25'0 0.0
2017-Nov-08 17:59N 28°09' W 015°25'0 0.0
2017-Nov-08 17:29N 28°09' W 015°25'0 0.0
2017-Nov-08 16:59N 28°09' W 015°25'0 0.0
2017-Nov-08 16:29N 28°09' W 015°25'0 0.0
2017-Nov-08 15:59N 28°09' W 015°25'0 0.0
2017-Nov-08 15:29N 28°09' W 015°25'0 0.0
2017-Nov-08 14:59N 28°09' W 015°25'0 0.0
2017-Nov-08 14:29N 28°09' W 015°25'0 0.0
2017-Nov-08 13:59N 28°09' W 015°25'0 0.0
2017-Nov-08 13:20N 28°09' W 015°25'0 0.0
2017-Nov-08 12:50N 28°09' W 015°25'0 0.0
2017-Nov-08 12:23N 28°09' W 015°25'0 0.0
2017-Nov-08 11:53N 28°09' W 015°25'0 0.0
2017-Nov-08 11:23N 28°09' W 015°25'0 0.0
2017-Nov-08 10:53N 28°09' W 015°25'0 0.0
2017-Nov-08 10:23N 28°09' W 015°25'0 0.0
2017-Nov-08 09:53N 28°09' W 015°25'0 0.0
2017-Nov-08 09:23N 28°09' W 015°25'0 0.0
2017-Nov-08 08:53N 28°09' W 015°25'0 0.0
2017-Nov-08 08:26N 28°09' W 015°25'0 0.0
2017-Nov-08 07:56N 28°09' W 015°25'0 0.0
2017-Nov-08 07:26N 28°09' W 015°25'0 0.0
2017-Nov-08 06:56N 28°09' W 015°25'0 0.0
2017-Nov-08 06:26N 28°09' W 015°25'0 0.0
2017-Nov-08 05:59N 28°09' W 015°25'0 0.0
2017-Nov-08 05:29N 28°09' W 015°25'0 0.0
2017-Nov-08 04:59N 28°09' W 015°25'0 0.0
2017-Nov-08 04:29N 28°09' W 015°25'0 0.0
2017-Nov-08 03:59N 28°09' W 015°25'0 0.0
2017-Nov-08 03:29N 28°09' W 015°25'0 0.0
2017-Nov-08 02:59N 28°09' W 015°25'0 0.0
2017-Nov-08 02:29N 28°09' W 015°25'0 0.0
2017-Nov-08 01:59N 28°09' W 015°25'0 0.0
2017-Nov-08 01:29N 28°09' W 015°25'0 0.0
2017-Nov-08 00:59N 28°09' W 015°25'0 0.0
2017-Nov-08 00:29N 28°09' W 015°25'0 0.0
2017-Nov-07 23:59N 28°09' W 015°25'0 0.0
2017-Nov-07 23:29N 28°09' W 015°25'0 0.0
2017-Nov-07 22:59N 28°09' W 015°25'0 0.0
2017-Nov-07 22:20N 28°09' W 015°25'0 0.0
2017-Nov-07 21:50N 28°09' W 015°25'0 0.0
2017-Nov-07 21:20N 28°09' W 015°25'0 0.0
2017-Nov-07 20:50N 28°09' W 015°25'0 0.0
2017-Nov-07 20:23N 28°09' W 015°25'0 0.0
2017-Nov-07 19:53N 28°09' W 015°25'0 0.0
2017-Nov-07 19:23N 28°09' W 015°25'0 0.0
2017-Nov-07 18:53N 28°09' W 015°25'0 0.0
2017-Nov-07 18:23N 28°09' W 015°25'0 0.0
2017-Nov-07 17:53N 28°09' W 015°25'0 0.0
2017-Nov-07 17:26N 28°09' W 015°25'0 0.0
2017-Nov-07 16:56N 28°09' W 015°25'0 0.0
2017-Nov-07 16:26N 28°09' W 015°25'0 0.0
2017-Nov-07 15:56N 28°09' W 015°25'0 0.0
2017-Nov-07 15:23N 28°09' W 015°25'0 0.0
2017-Nov-07 14:56N 28°09' W 015°25'0 0.0
2017-Nov-07 14:29N 28°09' W 015°25'0 0.0
2017-Nov-07 13:59N 28°09' W 015°25'0 0.0
2017-Nov-07 13:29N 28°09' W 015°25'0 0.0
2017-Nov-07 12:59N 28°09' W 015°25'0 0.0
2017-Nov-07 12:29N 28°09' W 015°25'0 0.0
2017-Nov-07 11:59N 28°09' W 015°25'0 0.0
2017-Nov-07 11:17N 28°09' W 015°25'0 0.0
2017-Nov-07 10:59N 28°09' W 015°25'0 0.0
2017-Nov-07 10:29N 28°09' W 015°25'0 0.0
2017-Nov-07 09:59N 28°09' W 015°25'0 0.0
2017-Nov-07 09:29N 28°09' W 015°25'0 0.0
2017-Nov-07 08:47N 28°09' W 015°25'0 0.0
2017-Nov-07 08:29N 28°09' W 015°25'0 0.0
2017-Nov-07 07:59N 28°09' W 015°25'0 0.0
2017-Nov-07 07:29N 28°09' W 015°25'0 0.0
2017-Nov-07 06:59N 28°09' W 015°25'0 0.0
2017-Nov-07 06:20N 28°09' W 015°25'0 0.0
2017-Nov-07 05:50N 28°09' W 015°25'0 0.0
2017-Nov-07 05:23N 28°09' W 015°25'0 0.0
2017-Nov-07 04:53N 28°09' W 015°25'0 0.0
2017-Nov-07 04:23N 28°09' W 015°25'0 0.0
2017-Nov-07 03:53N 28°09' W 015°25'0 0.0
2017-Nov-07 03:26N 28°09' W 015°25'0 0.0
2017-Nov-07 02:56N 28°09' W 015°25'0 0.0
2017-Nov-07 02:26N 28°09' W 015°25'0 0.0
2017-Nov-07 01:56N 28°09' W 015°25'0 0.0
2017-Nov-07 01:26N 28°09' W 015°25'0 0.0
2017-Nov-07 00:56N 28°09' W 015°25'0 0.0
2017-Nov-07 00:29N 28°09' W 015°25'0 0.0
2017-Nov-06 23:56N 28°09' W 015°25'0 0.0
2017-Nov-06 23:29N 28°09' W 015°25'0 0.0
2017-Nov-06 22:59N 28°09' W 015°25'0 0.0
2017-Nov-06 22:29N 28°09' W 015°25'0 0.0
2017-Nov-06 21:59N 28°09' W 015°25'0 0.0
2017-Nov-06 21:29N 28°09' W 015°25'0 0.0
2017-Nov-06 20:59N 28°09' W 015°25'0 0.0
2017-Nov-06 20:14N 28°09' W 015°25'0 0.0
2017-Nov-06 02:29N 28°09' W 015°25'0 0.0
2017-Nov-06 01:59N 28°09' W 015°25'0 0.0
2017-Nov-06 01:20N 28°09' W 015°25'0 0.0
2017-Nov-06 00:50N 28°09' W 015°25'0 0.0
2017-Nov-06 00:20N 28°09' W 015°25'0 0.0
2017-Nov-05 23:53N 28°09' W 015°25'0 0.0
2017-Nov-05 23:20N 28°09' W 015°25'0 0.0
2017-Nov-05 22:50N 28°09' W 015°25'0 0.0
2017-Nov-05 22:23N 28°09' W 015°25'0 0.0
2017-Nov-05 21:53N 28°09' W 015°25'0 0.0
2017-Nov-05 21:23N 28°09' W 015°25'0 0.0
2017-Nov-05 20:53N 28°09' W 015°25'0 0.0
2017-Nov-05 20:26N 28°09' W 015°25'0 0.0
2017-Nov-05 19:56N 28°09' W 015°25'0 0.0
2017-Nov-05 19:26N 28°09' W 015°25'0 0.0
2017-Nov-05 18:56N 28°09' W 015°25'0 0.0
2017-Nov-05 18:26N 28°09' W 015°25'0 0.0
2017-Nov-05 17:56N 28°09' W 015°25'0 0.0
2017-Nov-05 17:29N 28°09' W 015°25'0 0.0
2017-Nov-05 16:59N 28°09' W 015°25'0 0.0
2017-Nov-05 16:29N 28°09' W 015°25'0 0.0
2017-Nov-05 15:59N 28°09' W 015°25'0 0.0
2017-Nov-05 15:29N 28°09' W 015°25'0 0.0
2017-Nov-05 14:59N 28°09' W 015°25'0 0.0
2017-Nov-05 14:29N 28°09' W 015°25'0 0.0
2017-Nov-05 13:59N 28°09' W 015°25'0 0.0
2017-Nov-05 13:29N 28°09' W 015°25'0 0.0
2017-Nov-05 12:59N 28°09' W 015°25'0 0.0
2017-Nov-05 12:29N 28°09' W 015°25'0 0.0
2017-Nov-05 11:59N 28°09' W 015°25'0 0.0
2017-Nov-05 11:29N 28°09' W 015°25'0 0.0
2017-Nov-05 10:59N 28°09' W 015°25'0 0.0
2017-Nov-05 10:29N 28°09' W 015°25'0 0.0
2017-Nov-05 09:50N 28°09' W 015°25'0 0.0
2017-Nov-05 09:20N 28°09' W 015°25'0 0.0
2017-Nov-05 08:53N 28°09' W 015°25'0 0.0
2017-Nov-05 08:23N 28°09' W 015°25'0 0.0
2017-Nov-05 07:50N 28°09' W 015°25'0 0.0
2017-Nov-05 07:23N 28°09' W 015°25'0 0.0
2017-Nov-05 06:53N 28°09' W 015°25'0 0.0
2017-Nov-05 06:23N 28°09' W 015°25'0 0.0
2017-Nov-05 05:56N 28°09' W 015°25'0 0.0
2017-Nov-05 05:26N 28°09' W 015°25'0 0.0
2017-Nov-05 04:56N 28°09' W 015°25'0 0.0
2017-Nov-05 04:26N 28°09' W 015°25'0 0.0
2017-Nov-05 03:56N 28°09' W 015°25'0 0.0
2017-Nov-05 03:26N 28°09' W 015°25'0 0.0
2017-Nov-05 02:59N 28°09' W 015°25'0 0.0
2017-Nov-05 02:29N 28°09' W 015°25'0 0.0
2017-Nov-05 01:56N 28°09' W 015°25'0 0.0
2017-Nov-05 01:29N 28°09' W 015°25'0 0.0
2017-Nov-05 00:59N 28°09' W 015°25'0 0.0
2017-Nov-05 00:29N 28°09' W 015°25'0 0.0
2017-Nov-04 23:59N 28°09' W 015°25'0 0.0
2017-Nov-04 23:29N 28°09' W 015°25'0 0.0
2017-Nov-04 22:59N 28°09' W 015°25'0 0.0
2017-Nov-04 22:29N 28°09' W 015°25'  
Track history (hours):
 
Tides and Currents Weather Stations Pressure Air Temp Water Temp Dewpoint Dewpoint Depression Visibility Wind Speed Wind Dir Waves Ship Positions

Antarctic Sea

Last reported at 2017-Nov-14 22:02 UTC. Time now 2017-Dec-16 19:02 UTC.
Position N 27°45' W 015°20'.
Warning: this ship's position is 31 days out of date.

Length 134 m; draft 5.8 m.

Type: Fishing. MMSI: 258139000.

Date/timePositionNaut miles runAvg speedWind from/ knotsBaromVisibWave heightAir tempDewpointWater temp
2017-Nov-14 22:02N 27°45' W 015°20'011.4
2017-Nov-14 22:00N 27°45' W 015°20'611.3
2017-Nov-14 21:30N 27°50' W 015°17'611.7
2017-Nov-14 21:00N 27°56' W 015°17'611.2
2017-Nov-14 20:30N 28°02' W 015°18'611.2
2017-Nov-14 20:00N 28°06' W 015°22'1 2.1
2017-Nov-14 19:30N 28°06' W 015°24'0 0.0
2017-Nov-14 19:00N 28°06' W 015°24'0 0.1
2017-Nov-14 18:30N 28°06' W 015°24'0 0.1
2017-Nov-14 18:00N 28°06' W 015°24'0 0.1
2017-Nov-14 17:30N 28°06' W 015°24'0 0.2
2017-Nov-14 17:00N 28°06' W 015°23'2 3.3
2017-Nov-14 16:30N 28°07' W 015°22'3 5.2
2017-Nov-14 16:00N 28°07' W 015°19'1 1.6
2017-Nov-14 15:30N 28°06' W 015°18'2 4.8
2017-Nov-14 15:00N 28°06' W 015°15'2 3.9
2017-Nov-14 14:30N 28°05' W 015°13'2 3.8
2017-Nov-14 14:00N 28°05' W 015°16'0 0.6
2017-Nov-14 13:30N 28°05' W 015°16'3 5.2
2017-Nov-14 13:00N 28°05' W 015°13'3 5.5
2017-Nov-14 12:31N 28°05' W 015°10'2 4.7
2017-Nov-14 12:00N 28°05' W 015°13'2 4.2
2017-Nov-14 11:30N 28°06' W 015°15'1 1.4
2017-Nov-14 11:00N 28°06' W 015°15'3 5.0
2017-Nov-14 10:30N 28°06' W 015°13'1 2.6
2017-Nov-14 10:00N 28°06' W 015°14'1 2.3
2017-Nov-14 09:30N 28°06' W 015°15'2 4.8
2017-Nov-14 09:00N 28°06' W 015°18'4 8.8
2017-Nov-14 08:30N 28°07' W 015°23'1 2.6
2017-Nov-14 08:00N 28°07' W 015°25'0 0.1
2017-Nov-14 07:30N 28°07' W 015°25'0 0.0
2017-Nov-14 07:00N 28°07' W 015°25'0 0.0
2017-Nov-14 06:30N 28°07' W 015°25'0 0.1
2017-Nov-14 06:00N 28°07' W 015°25'0 0.1
2017-Nov-14 05:30N 28°07' W 015°25'0 0.0
2017-Nov-14 05:00N 28°07' W 015°25'0 0.1
2017-Nov-14 04:30N 28°07' W 015°25'0 0.1
2017-Nov-14 04:00N 28°07' W 015°25'0 0.1
2017-Nov-14 03:30N 28°07' W 015°25'0 0.0
2017-Nov-14 03:00N 28°07' W 015°25'0 0.0
2017-Nov-14 02:30N 28°07' W 015°25'0 0.0
2017-Nov-14 02:00N 28°07' W 015°25'0 0.0
2017-Nov-14 01:30N 28°07' W 015°25'0 0.0
2017-Nov-14 01:00N 28°07' W 015°25'0 0.1
2017-Nov-14 00:30N 28°07' W 015°25'0 0.1
2017-Nov-14 00:00N 28°07' W 015°25'1 1.9
2017-Nov-13 23:30N 28°07' W 015°24'2 3.1
2017-Nov-13 23:00N 28°07' W 015°22'2 4.7
2017-Nov-13 22:30N 28°07' W 015°19'1 2.7
2017-Nov-13 22:00N 28°07' W 015°18'7 0.3
2017-Nov-13 01:58N 28°09' W 015°25'0 0.0
2017-Nov-13 01:19N 28°09' W 015°25'0 0.0
2017-Nov-13 00:46N 28°09' W 015°25'0 0.0
2017-Nov-13 00:19N 28°09' W 015°25'0 0.0
2017-Nov-12 23:52N 28°09' W 015°25'0 0.0
2017-Nov-12 23:22N 28°09' W 015°25'0 0.0
2017-Nov-12 22:52N 28°09' W 015°25'0 0.0
2017-Nov-12 22:22N 28°09' W 015°25'0 0.0
2017-Nov-12 21:52N 28°09' W 015°25'0 0.0
2017-Nov-12 21:19N 28°09' W 015°25'0 0.0
2017-Nov-12 20:55N 28°09' W 015°25'0 0.0
2017-Nov-12 20:25N 28°09' W 015°25'0 0.0
2017-Nov-12 19:55N 28°09' W 015°25'0 0.0
2017-Nov-12 19:25N 28°09' W 015°25'0 0.0
2017-Nov-12 18:55N 28°09' W 015°25'0 0.0
2017-Nov-12 18:25N 28°09' W 015°25'0 0.0
2017-Nov-12 17:55N 28°09' W 015°25'0 0.0
2017-Nov-12 17:28N 28°09' W 015°25'0 0.0
2017-Nov-12 16:58N 28°09' W 015°25'0 0.0
2017-Nov-12 16:28N 28°09' W 015°25'0 0.0
2017-Nov-12 15:58N 28°09' W 015°25'0 0.0
2017-Nov-12 15:28N 28°09' W 015°25'0 0.0
2017-Nov-12 14:58N 28°09' W 015°25'0 0.0
2017-Nov-12 14:28N 28°09' W 015°25'0 0.0
2017-Nov-12 13:58N 28°09' W 015°25'0 0.0
2017-Nov-12 13:28N 28°09' W 015°25'0 0.0
2017-Nov-12 12:58N 28°09' W 015°25'1 1.6
2017-Nov-12 12:30N 28°09' W 015°25'0 0.0
2017-Nov-12 12:00N 28°09' W 015°25'0 0.0
2017-Nov-12 11:30N 28°09' W 015°25'0 0.0
2017-Nov-12 11:00N 28°09' W 015°25'0 0.0
2017-Nov-12 10:30N 28°09' W 015°25'0 0.0
2017-Nov-12 10:00N 28°09' W 015°25'0 0.0
2017-Nov-12 09:30N 28°09' W 015°25'0 0.0
2017-Nov-12 09:00N 28°09' W 015°25'0 0.0
2017-Nov-12 08:30N 28°09' W 015°25'0 0.0
2017-Nov-12 08:00N 28°09' W 015°25'0 0.0
2017-Nov-12 07:30N 28°09' W 015°25'0 0.0
2017-Nov-12 06:48N 28°09' W 015°25'0 0.0
2017-Nov-12 06:21N 28°09' W 015°25'0 0.0
2017-Nov-12 05:54N 28°09' W 015°25'0 0.0
2017-Nov-12 05:21N 28°09' W 015°25'0 0.0
2017-Nov-12 04:54N 28°09' W 015°25'0 0.0
2017-Nov-12 04:24N 28°09' W 015°25'0 0.0
2017-Nov-12 03:54N 28°09' W 015°25'0 0.0
2017-Nov-12 03:24N 28°09' W 015°25'0 0.0
2017-Nov-12 02:54N 28°09' W 015°25'0 0.0
2017-Nov-12 02:24N 28°09' W 015°25'0 0.0
2017-Nov-12 01:57N 28°09' W 015°25'0 0.0
2017-Nov-12 01:26N 28°09' W 015°25'0 0.0
2017-Nov-12 00:57N 28°09' W 015°25'0 0.0
2017-Nov-12 00:27N 28°09' W 015°25'0 0.0
2017-Nov-12 00:00N 28°09' W 015°25'0 0.0
2017-Nov-11 23:30N 28°09' W 015°25'0 0.0
2017-Nov-11 23:00N 28°09' W 015°25'0 0.0
2017-Nov-11 22:30N 28°09' W 015°25'0 0.0
2017-Nov-11 22:00N 28°09' W 015°25'0 0.0
2017-Nov-11 21:30N 28°09' W 015°25'0 0.0
2017-Nov-11 21:00N 28°09' W 015°25'0 0.0
2017-Nov-11 20:30N 28°09' W 015°25'0 0.0
2017-Nov-11 19:59N 28°09' W 015°25'0 0.0
2017-Nov-11 19:30N 28°09' W 015°25'0 0.0
2017-Nov-11 19:00N 28°09' W 015°25'0 0.0
2017-Nov-11 18:30N 28°09' W 015°25'0 0.0
2017-Nov-11 17:59N 28°09' W 015°25'0 0.0
2017-Nov-11 17:30N 28°09' W 015°25'0 0.0
2017-Nov-11 16:59N 28°09' W 015°25'0 0.0
2017-Nov-11 16:21N 28°09' W 015°25'0 0.0
2017-Nov-11 15:50N 28°09' W 015°25'0 0.0
2017-Nov-11 15:21N 28°09' W 015°25'0 0.0
2017-Nov-11 14:51N 28°09' W 015°25'0 0.0
2017-Nov-11 14:24N 28°09' W 015°25'0 0.0
2017-Nov-11 13:54N 28°09' W 015°25'0 0.0
2017-Nov-11 13:23N 28°09' W 015°25'0 0.0
2017-Nov-11 12:53N 28°09' W 015°25'0 0.0
2017-Nov-11 12:23N 28°09' W 015°25'0 0.0
2017-Nov-11 11:53N 28°09' W 015°25'0 0.0
2017-Nov-11 11:27N 28°09' W 015°25'0 0.0
2017-Nov-11 10:56N 28°09' W 015°25'0 0.0
2017-Nov-11 10:27N 28°09' W 015°25'0 0.0
2017-Nov-11 09:56N 28°09' W 015°25'0 0.0
2017-Nov-11 09:26N 28°09' W 015°25'0 0.0
2017-Nov-11 09:00N 28°09' W 015°25'0 0.0
2017-Nov-11 08:29N 28°09' W 015°25'0 0.0
2017-Nov-11 07:59N 28°09' W 015°25'0 0.0
2017-Nov-11 07:29N 28°09' W 015°25'0 0.0
2017-Nov-11 06:59N 28°09' W 015°25'0 0.0
2017-Nov-11 06:30N 28°09' W 015°25'0 0.0
2017-Nov-11 06:00N 28°09' W 015°25'0 0.0
2017-Nov-11 05:29N 28°09' W 015°25'0 0.0
2017-Nov-11 04:59N 28°09' W 015°25'0 0.0
2017-Nov-11 04:29N 28°09' W 015°25'0 0.0
2017-Nov-11 03:47N 28°09' W 015°25'0 0.0
2017-Nov-11 03:29N 28°09' W 015°25'0 0.0
2017-Nov-11 02:59N 28°09' W 015°25'0 0.0
2017-Nov-11 02:29N 28°09' W 015°25'0 0.0
2017-Nov-11 01:59N 28°09' W 015°25'0 0.0
2017-Nov-11 01:29N 28°09' W 015°25'0 0.0
2017-Nov-11 00:50N 28°09' W 015°25'0 0.0
2017-Nov-11 00:23N 28°09' W 015°25'0 0.0
2017-Nov-10 23:53N 28°09' W 015°25'0 0.0
2017-Nov-10 23:23N 28°09' W 015°25'0 0.0
2017-Nov-10 22:53N 28°09' W 015°25'0 0.0
2017-Nov-10 22:23N 28°09' W 015°25'0 0.0
2017-Nov-10 21:53N 28°09' W 015°25'0 0.0
2017-Nov-10 21:23N 28°09' W 015°25'0 0.0
2017-Nov-10 20:53N 28°09' W 015°25'0 0.0
2017-Nov-10 20:26N 28°09' W 015°25'0 0.0
2017-Nov-10 19:53N 28°09' W 015°25'0 0.0
2017-Nov-10 19:26N 28°09' W 015°25'0 0.0
2017-Nov-10 18:56N 28°09' W 015°25'0 0.0
2017-Nov-10 18:23N 28°09' W 015°25'0 0.0
2017-Nov-10 17:59N 28°09' W 015°25'0 0.0
2017-Nov-10 17:29N 28°09' W 015°25'0 0.0
2017-Nov-10 16:59N 28°09' W 015°25'0 0.0
2017-Nov-10 16:29N 28°09' W 015°25'0 0.0
2017-Nov-10 15:59N 28°09' W 015°25'0 0.0
2017-Nov-10 15:29N 28°09' W 015°25'0 0.0
2017-Nov-10 14:56N 28°09' W 015°25'0 0.0
2017-Nov-10 14:29N 28°09' W 015°25'0 0.0
2017-Nov-10 13:59N 28°09' W 015°25'0 0.0
2017-Nov-10 13:17N 28°09' W 015°25'0 0.0
2017-Nov-10 12:59N 28°09' W 015°25'0 0.0
2017-Nov-10 12:29N 28°09' W 015°25'0 0.0
2017-Nov-10 11:59N 28°09' W 015°25'0 0.0
2017-Nov-10 11:29N 28°09' W 015°25'0 0.0
2017-Nov-10 10:59N 28°09' W 015°25'0 0.0
2017-Nov-10 10:20N 28°09' W 015°25'0 0.0
2017-Nov-10 09:50N 28°09' W 015°25'0 0.0
2017-Nov-10 09:20N 28°09' W 015°25'0 0.0
2017-Nov-10 08:50N 28°09' W 015°25'0 0.0
2017-Nov-10 08:23N 28°09' W 015°25'0 0.0
2017-Nov-10 07:53N 28°09' W 015°25'0 0.0
2017-Nov-10 07:20N 28°09' W 015°25'0 0.0
2017-Nov-10 06:50N 28°09' W 015°25'0 0.0
2017-Nov-10 06:26N 28°09' W 015°25'0 0.0
2017-Nov-10 05:53N 28°09' W 015°25'0 0.0
2017-Nov-10 05:26N 28°09' W 015°25'0 0.0
2017-Nov-10 04:50N 28°09' W 015°25'0 0.0
2017-Nov-10 04:26N 28°09' W 015°25'0 0.0
2017-Nov-10 03:53N 28°09' W 015°25'0 0.0
2017-Nov-10 03:26N 28°09' W 015°25'0 0.0
2017-Nov-10 02:59N 28°09' W 015°25'0 0.0
2017-Nov-10 02:29N 28°09' W 015°25'0 0.0
2017-Nov-10 01:59N 28°09' W 015°25'0 0.0
2017-Nov-10 01:29N 28°09' W 015°25'0 0.0
2017-Nov-10 00:59N 28°09' W 015°25'0 0.0
2017-Nov-10 00:29N 28°09' W 015°25'0 0.0
2017-Nov-09 23:59N 28°09' W 015°25'0 0.0
2017-Nov-09 23:29N 28°09' W 015°25'0 0.0
2017-Nov-09 22:59N 28°09' W 015°25'0 0.0
2017-Nov-09 22:29N 28°09' W 015°25'0 0.0
2017-Nov-09 21:59N 28°09' W 015°25'0 0.0
2017-Nov-09 21:29N 28°09' W 015°25'0 0.0
2017-Nov-09 20:59N 28°09' W 015°25'0 0.0
2017-Nov-09 20:29N 28°09' W 015°25'0 0.0
2017-Nov-09 19:50N 28°09' W 015°25'0 0.0
2017-Nov-09 19:20N 28°09' W 015°25'0 0.0
2017-Nov-09 18:50N 28°09' W 015°25'0 0.0
2017-Nov-09 18:17N 28°09' W 015°25'0 0.0
2017-Nov-09 17:53N 28°09' W 015°25'0 0.0
2017-Nov-09 17:23N 28°09' W 015°25'0 0.0
2017-Nov-09 16:53N 28°09' W 015°25'0 0.0
2017-Nov-09 16:23N 28°09' W 015°25'0 0.0
2017-Nov-09 15:53N 28°09' W 015°25'0 0.0
2017-Nov-09 15:23N 28°09' W 015°25'0 0.0
2017-Nov-09 14:56N 28°09' W 015°25'0 0.0
2017-Nov-09 14:23N 28°09' W 015°25'0 0.0
2017-Nov-09 13:56N 28°09' W 015°25'0 0.0
2017-Nov-09 13:26N 28°09' W 015°25'0 0.0
2017-Nov-09 12:56N 28°09' W 015°25'0 0.0
2017-Nov-09 12:26N 28°09' W 015°25'0 0.0
2017-Nov-09 11:56N 28°09' W 015°25'0 0.0
2017-Nov-09 11:26N 28°09' W 015°25'0 0.0
2017-Nov-09 10:59N 28°09' W 015°25'0 0.0
2017-Nov-09 10:29N 28°09' W 015°25'0 0.0
2017-Nov-09 09:59N 28°09' W 015°25'0 0.0
2017-Nov-09 09:29N 28°09' W 015°25'0 0.0
2017-Nov-09 08:56N 28°09' W 015°25'0 0.0
2017-Nov-09 08:29N 28°09' W 015°25'0 0.0
2017-Nov-09 07:59N 28°09' W 015°25'0 0.0
2017-Nov-09 07:17N 28°09' W 015°25'0 0.0
2017-Nov-09 06:59N 28°09' W 015°25'0 0.0
2017-Nov-09 06:29N 28°09' W 015°25'0 0.0
2017-Nov-09 05:59N 28°09' W 015°25'0 0.0
2017-Nov-09 05:29N 28°09' W 015°25'0 0.0
2017-Nov-09 04:59N 28°09' W 015°25'0 0.0
2017-Nov-09 04:29N 28°09' W 015°25'0 0.0
2017-Nov-09 03:50N 28°09' W 015°25'0 0.0
2017-Nov-09 03:05N 28°09' W 015°25'0 0.0
2017-Nov-09 02:53N 28°09' W 015°25'0 0.0
2017-Nov-09 02:23N 28°09' W 015°25'0 0.0
2017-Nov-09 01:53N 28°09' W 015°25'0 0.0
2017-Nov-09 01:23N 28°09' W 015°25'0 0.0
2017-Nov-09 00:53N 28°09' W 015°25'0 0.0
2017-Nov-09 00:23N 28°09' W 015°25'0 0.0
2017-Nov-08 23:56N 28°09' W 015°25'0 0.0
2017-Nov-08 23:26N 28°09' W 015°25'0 0.0
2017-Nov-08 22:56N 28°09' W 015°25'0 0.0
2017-Nov-08 22:26N 28°09' W 015°25'0 0.0
2017-Nov-08 21:56N 28°09' W 015°25'0 0.0
2017-Nov-08 21:29N 28°09' W 015°25'0 0.0
2017-Nov-08 20:56N 28°09' W 015°25'0 0.0
2017-Nov-08 20:23N 28°09' W 015°25'0 0.0
2017-Nov-08 19:59N 28°09' W 015°25'0 0.0
2017-Nov-08 19:29N 28°09' W 015°25'0 0.0
2017-Nov-08 18:59N 28°09' W 015°25'0 0.0
2017-Nov-08 18:29N 28°09' W 015°25'0 0.0
2017-Nov-08 17:59N 28°09' W 015°25'0 0.0
2017-Nov-08 17:29N 28°09' W 015°25'0 0.0
2017-Nov-08 16:59N 28°09' W 015°25'0 0.0
2017-Nov-08 16:29N 28°09' W 015°25'0 0.0
2017-Nov-08 15:59N 28°09' W 015°25'0 0.0
2017-Nov-08 15:29N 28°09' W 015°25'0 0.0
2017-Nov-08 14:59N 28°09' W 015°25'0 0.0
2017-Nov-08 14:29N 28°09' W 015°25'0 0.0
2017-Nov-08 13:59N 28°09' W 015°25'0 0.0
2017-Nov-08 13:20N 28°09' W 015°25'0 0.0
2017-Nov-08 12:50N 28°09' W 015°25'0 0.0
2017-Nov-08 12:23N 28°09' W 015°25'0 0.0
2017-Nov-08 11:53N 28°09' W 015°25'0 0.0
2017-Nov-08 11:23N 28°09' W 015°25'0 0.0
2017-Nov-08 10:53N 28°09' W 015°25'0 0.0
2017-Nov-08 10:23N 28°09' W 015°25'0 0.0
2017-Nov-08 09:53N 28°09' W 015°25'0 0.0
2017-Nov-08 09:23N 28°09' W 015°25'0 0.0
2017-Nov-08 08:53N 28°09' W 015°25'0 0.0
2017-Nov-08 08:26N 28°09' W 015°25'0 0.0
2017-Nov-08 07:56N 28°09' W 015°25'0 0.0
2017-Nov-08 07:26N 28°09' W 015°25'0 0.0
2017-Nov-08 06:56N 28°09' W 015°25'0 0.0
2017-Nov-08 06:26N 28°09' W 015°25'0 0.0
2017-Nov-08 05:59N 28°09' W 015°25'0 0.0
2017-Nov-08 05:29N 28°09' W 015°25'0 0.0
2017-Nov-08 04:59N 28°09' W 015°25'0 0.0
2017-Nov-08 04:29N 28°09' W 015°25'0 0.0
2017-Nov-08 03:59N 28°09' W 015°25'0 0.0
2017-Nov-08 03:29N 28°09' W 015°25'0 0.0
2017-Nov-08 02:59N 28°09' W 015°25'0 0.0
2017-Nov-08 02:29N 28°09' W 015°25'0 0.0
2017-Nov-08 01:59N 28°09' W 015°25'0 0.0
2017-Nov-08 01:29N 28°09' W 015°25'0 0.0
2017-Nov-08 00:59N 28°09' W 015°25'0 0.0
2017-Nov-08 00:29N 28°09' W 015°25'0 0.0
2017-Nov-07 23:59N 28°09' W 015°25'0 0.0
2017-Nov-07 23:29N 28°09' W 015°25'0 0.0
2017-Nov-07 22:59N 28°09' W 015°25'0 0.0
2017-Nov-07 22:20N 28°09' W 015°25'0 0.0
2017-Nov-07 21:50N 28°09' W 015°25'0 0.0
2017-Nov-07 21:20N 28°09' W 015°25'0 0.0
2017-Nov-07 20:50N 28°09' W 015°25'0 0.0
2017-Nov-07 20:23N 28°09' W 015°25'0 0.0
2017-Nov-07 19:53N 28°09' W 015°25'0 0.0
2017-Nov-07 19:23N 28°09' W 015°25'0 0.0
2017-Nov-07 18:53N 28°09' W 015°25'0 0.0
2017-Nov-07 18:23N 28°09' W 015°25'0 0.0
2017-Nov-07 17:53N 28°09' W 015°25'0 0.0
2017-Nov-07 17:26N 28°09' W 015°25'0 0.0
2017-Nov-07 16:56N 28°09' W 015°25'0 0.0
2017-Nov-07 16:26N 28°09' W 015°25'0 0.0
2017-Nov-07 15:56N 28°09' W 015°25'0 0.0
2017-Nov-07 15:23N 28°09' W 015°25'0 0.0
2017-Nov-07 14:56N 28°09' W 015°25'0 0.0
2017-Nov-07 14:29N 28°09' W 015°25'0 0.0
2017-Nov-07 13:59N 28°09' W 015°25'0 0.0
2017-Nov-07 13:29N 28°09' W 015°25'0 0.0
2017-Nov-07 12:59N 28°09' W 015°25'0 0.0
2017-Nov-07 12:29N 28°09' W 015°25'0 0.0
2017-Nov-07 11:59N 28°09' W 015°25'0 0.0
2017-Nov-07 11:17N 28°09' W 015°25'0 0.0
2017-Nov-07 10:59N 28°09' W 015°25'0 0.0
2017-Nov-07 10:29N 28°09' W 015°25'0 0.0
2017-Nov-07 09:59N 28°09' W 015°25'0 0.0
2017-Nov-07 09:29N 28°09' W 015°25'0 0.0
2017-Nov-07 08:47N 28°09' W 015°25'0 0.0
2017-Nov-07 08:29N 28°09' W 015°25'0 0.0
2017-Nov-07 07:59N 28°09' W 015°25'0 0.0
2017-Nov-07 07:29N 28°09' W 015°25'0 0.0
2017-Nov-07 06:59N 28°09' W 015°25'0 0.0
2017-Nov-07 06:20N 28°09' W 015°25'0 0.0
2017-Nov-07 05:50N 28°09' W 015°25'0 0.0
2017-Nov-07 05:23N 28°09' W 015°25'0 0.0
2017-Nov-07 04:53N 28°09' W 015°25'0 0.0
2017-Nov-07 04:23N 28°09' W 015°25'0 0.0
2017-Nov-07 03:53N 28°09' W 015°25'0 0.0
2017-Nov-07 03:26N 28°09' W 015°25'0 0.0
2017-Nov-07 02:56N 28°09' W 015°25'0 0.0
2017-Nov-07 02:26N 28°09' W 015°25'0 0.0
2017-Nov-07 01:56N 28°09' W 015°25'0 0.0
2017-Nov-07 01:26N 28°09' W 015°25'0 0.0
2017-Nov-07 00:56N 28°09' W 015°25'0 0.0
2017-Nov-07 00:29N 28°09' W 015°25'0 0.0
2017-Nov-06 23:56N 28°09' W 015°25'0 0.0
2017-Nov-06 23:29N 28°09' W 015°25'0 0.0
2017-Nov-06 22:59N 28°09' W 015°25'0 0.0
2017-Nov-06 22:29N 28°09' W 015°25'0 0.0
2017-Nov-06 21:59N 28°09' W 015°25'0 0.0
2017-Nov-06 21:29N 28°09' W 015°25'0 0.0
2017-Nov-06 20:59N 28°09' W 015°25'0 0.0
2017-Nov-06 20:14N 28°09' W 015°25'0 0.0
2017-Nov-06 02:29N 28°09' W 015°25'0 0.0
2017-Nov-06 01:59N 28°09' W 015°25'0 0.0
2017-Nov-06 01:20N 28°09' W 015°25'0 0.0
2017-Nov-06 00:50N 28°09' W 015°25'0 0.0
2017-Nov-06 00:20N 28°09' W 015°25'0 0.0
2017-Nov-05 23:53N 28°09' W 015°25'0 0.0
2017-Nov-05 23:20N 28°09' W 015°25'0 0.0
2017-Nov-05 22:50N 28°09' W 015°25'0 0.0
2017-Nov-05 22:23N 28°09' W 015°25'0 0.0
2017-Nov-05 21:53N 28°09' W 015°25'0 0.0
2017-Nov-05 21:23N 28°09' W 015°25'0 0.0
2017-Nov-05 20:53N 28°09' W 015°25'0 0.0
2017-Nov-05 20:26N 28°09' W 015°25'0 0.0
2017-Nov-05 19:56N 28°09' W 015°25'0 0.0
2017-Nov-05 19:26N 28°09' W 015°25'0 0.0
2017-Nov-05 18:56N 28°09' W 015°25'0 0.0
2017-Nov-05 18:26N 28°09' W 015°25'0 0.0
2017-Nov-05 17:56N 28°09' W 015°25'0 0.0
2017-Nov-05 17:29N 28°09' W 015°25'0 0.0
2017-Nov-05 16:59N 28°09' W 015°25'0 0.0
2017-Nov-05 16:29N 28°09' W 015°25'0 0.0
2017-Nov-05 15:59N 28°09' W 015°25'0 0.0
2017-Nov-05 15:29N 28°09' W 015°25'0 0.0
2017-Nov-05 14:59N 28°09' W 015°25'0 0.0
2017-Nov-05 14:29N 28°09' W 015°25'0 0.0
2017-Nov-05 13:59N 28°09' W 015°25'0 0.0
2017-Nov-05 13:29N 28°09' W 015°25'0 0.0
2017-Nov-05 12:59N 28°09' W 015°25'0 0.0
2017-Nov-05 12:29N 28°09' W 015°25'0 0.0
2017-Nov-05 11:59N 28°09' W 015°25'0 0.0
2017-Nov-05 11:29N 28°09' W 015°25'0 0.0
2017-Nov-05 10:59N 28°09' W 015°25'0 0.0
2017-Nov-05 10:29N 28°09' W 015°25'0 0.0
2017-Nov-05 09:50N 28°09' W 015°25'0 0.0
2017-Nov-05 09:20N 28°09' W 015°25'0 0.0
2017-Nov-05 08:53N 28°09' W 015°25'0 0.0
2017-Nov-05 08:23N 28°09' W 015°25'0 0.0
2017-Nov-05 07:50N 28°09' W 015°25'0 0.0
2017-Nov-05 07:23N 28°09' W 015°25'0 0.0
2017-Nov-05 06:53N 28°09' W 015°25'0 0.0
2017-Nov-05 06:23N 28°09' W 015°25'0 0.0
2017-Nov-05 05:56N 28°09' W 015°25'0 0.0
2017-Nov-05 05:26N 28°09' W 015°25'0 0.0
2017-Nov-05 04:56N 28°09' W 015°25'0 0.0
2017-Nov-05 04:26N 28°09' W 015°25'0 0.0
2017-Nov-05 03:56N 28°09' W 015°25'0 0.0
2017-Nov-05 03:26N 28°09' W 015°25'0 0.0
2017-Nov-05 02:59N 28°09' W 015°25'0 0.0
2017-Nov-05 02:29N 28°09' W 015°25'0 0.0
2017-Nov-05 01:56N 28°09' W 015°25'0 0.0
2017-Nov-05 01:29N 28°09' W 015°25'0 0.0
2017-Nov-05 00:59N 28°09' W 015°25'0 0.0
2017-Nov-05 00:29N 28°09' W 015°25'0 0.0
2017-Nov-04 23:59N 28°09' W 015°25'0 0.0
2017-Nov-04 23:29N 28°09' W 015°25'0 0.0
2017-Nov-04 22:59N 28°09' W 015°25'0 0.0
2017-Nov-04 22:29N 28°09' W 015°25'  

Dump ship's entire track history